sensor_id;sensor_type;location;lat;lon;timestamp;pressure;altitude;pressure_sealevel;temperature;humidity
41703;BME280;861;48.808;9.006;2023-02-28T00:00:40;97750.22;;;1.73;53.31
41703;BME280;861;48.808;9.006;2023-02-28T00:03:07;97752.66;;;1.83;52.69
41703;BME280;861;48.808;9.006;2023-02-28T00:05:33;97744.28;;;1.84;52.80
41703;BME280;861;48.808;9.006;2023-02-28T00:08:00;97754.19;;;1.75;52.71
41703;BME280;861;48.808;9.006;2023-02-28T00:10:31;97742.34;;;1.76;52.66
41703;BME280;861;48.808;9.006;2023-02-28T00:13:05;97744.97;;;1.59;53.03
41703;BME280;861;48.808;9.006;2023-02-28T00:15:35;97740.53;;;1.54;53.83
41703;BME280;861;48.808;9.006;2023-02-28T00:18:04;97748.63;;;1.63;53.31
41703;BME280;861;48.808;9.006;2023-02-28T00:20:30;97743.28;;;1.72;52.81
41703;BME280;861;48.808;9.006;2023-02-28T00:22:57;97747.19;;;1.66;53.42
41703;BME280;861;48.808;9.006;2023-02-28T00:25:25;97750.69;;;1.66;53.58
41703;BME280;861;48.808;9.006;2023-02-28T00:27:52;97738.31;;;1.48;53.57
41703;BME280;861;48.808;9.006;2023-02-28T00:30:23;97736.84;;;1.42;54.11
41703;BME280;861;48.808;9.006;2023-02-28T00:32:52;97744.97;;;1.59;54.07
41703;BME280;861;48.808;9.006;2023-02-28T00:35:19;97741.78;;;1.18;54.61
41703;BME280;861;48.808;9.006;2023-02-28T00:37:45;97744.34;;;1.23;54.39
41703;BME280;861;48.808;9.006;2023-02-28T00:40:12;97739.50;;;1.33;54.91
41703;BME280;861;48.808;9.006;2023-02-28T00:42:39;97731.47;;;1.42;54.63
41703;BME280;861;48.808;9.006;2023-02-28T00:45:06;97744.56;;;1.35;54.74
41703;BME280;861;48.808;9.006;2023-02-28T00:47:34;97733.41;;;1.50;54.46
41703;BME280;861;48.808;9.006;2023-02-28T00:50:00;97738.69;;;1.33;55.07
41703;BME280;861;48.808;9.006;2023-02-28T00:52:27;97732.22;;;1.34;55.02
41703;BME280;861;48.808;9.006;2023-02-28T00:54:53;97739.94;;;1.27;55.69
41703;BME280;861;48.808;9.006;2023-02-28T00:57:20;97727.28;;;1.19;55.50
41703;BME280;861;48.808;9.006;2023-02-28T00:59:46;97732.97;;;1.56;55.15
41703;BME280;861;48.808;9.006;2023-02-28T01:02:12;97740.44;;;1.37;55.48
41703;BME280;861;48.808;9.006;2023-02-28T01:04:39;97737.88;;;1.24;55.91
41703;BME280;861;48.808;9.006;2023-02-28T01:07:05;97737.13;;;1.32;55.75
41703;BME280;861;48.808;9.006;2023-02-28T01:09:31;97734.75;;;1.30;55.79
41703;BME280;861;48.808;9.006;2023-02-28T01:11:57;97733.91;;;1.21;55.96
41703;BME280;861;48.808;9.006;2023-02-28T01:14:24;97728.09;;;1.28;56.10
41703;BME280;861;48.808;9.006;2023-02-28T01:16:50;97733.34;;;1.33;56.07
41703;BME280;861;48.808;9.006;2023-02-28T01:19:17;97731.38;;;1.16;56.38
41703;BME280;861;48.808;9.006;2023-02-28T01:21:43;97724.63;;;1.27;55.84
41703;BME280;861;48.808;9.006;2023-02-28T01:24:09;97732.34;;;0.98;56.83
41703;BME280;861;48.808;9.006;2023-02-28T01:26:36;97730.50;;;1.07;57.19
41703;BME280;861;48.808;9.006;2023-02-28T01:29:02;97718.72;;;1.17;57.00
41703;BME280;861;48.808;9.006;2023-02-28T01:31:29;97730.06;;;1.14;56.85
41703;BME280;861;48.808;9.006;2023-02-28T01:33:55;97730.38;;;1.12;56.85
41703;BME280;861;48.808;9.006;2023-02-28T01:36:24;97726.84;;;1.25;56.94
41703;BME280;861;48.808;9.006;2023-02-28T01:38:59;97728.69;;;1.16;57.02
41703;BME280;861;48.808;9.006;2023-02-28T01:41:32;97727.44;;;1.22;57.18
41703;BME280;861;48.808;9.006;2023-02-28T01:47:42;97728.81;;;1.11;57.69
41703;BME280;861;48.808;9.006;2023-02-28T01:50:29;97732.56;;;1.10;57.68
41703;BME280;861;48.808;9.006;2023-02-28T01:53:07;97726.19;;;0.98;58.26
41703;BME280;861;48.808;9.006;2023-02-28T01:55:49;97725.88;;;0.99;58.50
41703;BME280;861;48.808;9.006;2023-02-28T01:58:19;97714.56;;;1.02;58.22
41703;BME280;861;48.808;9.006;2023-02-28T02:00:46;97719.31;;;1.05;58.13
41703;BME280;861;48.808;9.006;2023-02-28T02:03:18;97718.16;;;0.98;58.32
41703;BME280;861;48.808;9.006;2023-02-28T02:05:46;97708.53;;;0.97;58.74
41703;BME280;861;48.808;9.006;2023-02-28T02:08:23;97711.84;;;0.94;58.76
41703;BME280;861;48.808;9.006;2023-02-28T02:11:01;97706.38;;;1.07;58.68
41703;BME280;861;48.808;9.006;2023-02-28T02:17:16;97700.59;;;1.14;58.69
41703;BME280;861;48.808;9.006;2023-02-28T02:20:22;97700.31;;;0.93;59.26
41703;BME280;861;48.808;9.006;2023-02-28T02:23:55;97693.28;;;1.06;58.99
41703;BME280;861;48.808;9.006;2023-02-28T02:34:26;97685.75;;;0.86;59.92
41703;BME280;861;48.808;9.006;2023-02-28T02:37:39;97689.66;;;1.02;59.55
41703;BME280;861;48.808;9.006;2023-02-28T02:40:23;97691.44;;;1.15;59.35
41703;BME280;861;48.808;9.006;2023-02-28T02:43:24;97693.56;;;0.96;59.89
41703;BME280;861;48.808;9.006;2023-02-28T02:46:12;97689.66;;;1.02;59.94
41703;BME280;861;48.808;9.006;2023-02-28T02:48:48;97691.91;;;1.17;59.37
41703;BME280;861;48.808;9.006;2023-02-28T02:51:23;97695.72;;;1.16;59.73
41703;BME280;861;48.808;9.006;2023-02-28T02:54:30;97692.34;;;1.10;59.74
41703;BME280;861;48.808;9.006;2023-02-28T02:57:48;97695.00;;;1.02;60.11
41703;BME280;861;48.808;9.006;2023-02-28T03:00:32;97692.97;;;1.07;59.88
41703;BME280;861;48.808;9.006;2023-02-28T03:03:07;97701.59;;;1.26;59.70
41703;BME280;861;48.808;9.006;2023-02-28T03:05:50;97700.13;;;1.12;59.74
41703;BME280;861;48.808;9.006;2023-02-28T03:08:17;97695.03;;;1.10;60.02
41703;BME280;861;48.808;9.006;2023-02-28T03:10:50;97701.50;;;1.09;60.24
41703;BME280;861;48.808;9.006;2023-02-28T03:14:56;97698.47;;;1.33;59.54
41703;BME280;861;48.808;9.006;2023-02-28T03:18:16;97705.06;;;1.27;60.01
41703;BME280;861;48.808;9.006;2023-02-28T03:21:23;97693.66;;;1.21;59.82
41703;BME280;861;48.808;9.006;2023-02-28T03:27:06;97711.97;;;1.19;60.09
41703;BME280;861;48.808;9.006;2023-02-28T03:33:14;97700.00;;;1.25;60.10
41703;BME280;861;48.808;9.006;2023-02-28T03:36:19;97695.16;;;1.36;60.07
41703;BME280;861;48.808;9.006;2023-02-28T03:39:14;97697.81;;;1.27;60.23
41703;BME280;861;48.808;9.006;2023-02-28T03:42:11;97691.34;;;1.28;60.22
41703;BME280;861;48.808;9.006;2023-02-28T03:47:48;97692.63;;;1.00;61.02
41703;BME280;861;48.808;9.006;2023-02-28T03:50:40;97688.47;;;1.16;60.93
41703;BME280;861;48.808;9.006;2023-02-28T03:53:32;97687.72;;;1.24;60.90
41703;BME280;861;48.808;9.006;2023-02-28T03:56:29;97692.34;;;1.10;61.37
41703;BME280;861;48.808;9.006;2023-02-28T04:02:16;97695.19;;;1.05;61.71
41703;BME280;861;48.808;9.006;2023-02-28T04:04:44;97696.28;;;1.04;62.08
41703;BME280;861;48.808;9.006;2023-02-28T04:07:15;97698.75;;;1.23;61.51
41703;BME280;861;48.808;9.006;2023-02-28T04:09:42;97712.44;;;1.21;61.80
41703;BME280;861;48.808;9.006;2023-02-28T04:12:09;97702.31;;;1.10;62.33
41703;BME280;861;48.808;9.006;2023-02-28T04:14:35;97694.78;;;1.20;62.34
41703;BME280;861;48.808;9.006;2023-02-28T04:17:01;97694.81;;;1.29;62.29
41703;BME280;861;48.808;9.006;2023-02-28T04:19:28;97692.28;;;1.24;62.02
41703;BME280;861;48.808;9.006;2023-02-28T04:21:54;97701.22;;;0.89;63.31
41703;BME280;861;48.808;9.006;2023-02-28T04:24:27;97699.81;;;1.13;62.57
41703;BME280;861;48.808;9.006;2023-02-28T04:26:57;97703.22;;;1.05;62.99
41703;BME280;861;48.808;9.006;2023-02-28T04:29:31;97697.16;;;1.22;62.54
41703;BME280;861;48.808;9.006;2023-02-28T04:32:01;97699.06;;;0.99;63.42
41703;BME280;861;48.808;9.006;2023-02-28T04:34:31;97703.53;;;1.04;63.81
41703;BME280;861;48.808;9.006;2023-02-28T04:36:59;97691.03;;;0.99;63.67
41703;BME280;861;48.808;9.006;2023-02-28T04:39:26;97685.09;;;1.11;63.53
41703;BME280;861;48.808;9.006;2023-02-28T04:41:52;97686.56;;;1.17;63.84
41703;BME280;861;48.808;9.006;2023-02-28T04:44:18;97691.44;;;1.15;63.81
41703;BME280;861;48.808;9.006;2023-02-28T04:46:44;97679.13;;;1.14;63.87
41703;BME280;861;48.808;9.006;2023-02-28T04:49:12;97689.53;;;1.15;64.10
41703;BME280;861;48.808;9.006;2023-02-28T04:51:43;97684.88;;;1.29;63.83
41703;BME280;861;48.808;9.006;2023-02-28T04:54:10;97681.84;;;1.22;63.45
41703;BME280;861;48.808;9.006;2023-02-28T04:56:36;97681.81;;;1.14;64.10
41703;BME280;861;48.808;9.006;2023-02-28T04:59:02;97682.78;;;0.87;65.08
41703;BME280;861;48.808;9.006;2023-02-28T05:01:38;97687.03;;;0.88;65.31
41703;BME280;861;48.808;9.006;2023-02-28T05:04:14;97691.16;;;1.16;64.64
41703;BME280;861;48.808;9.006;2023-02-28T05:06:46;97683.31;;;1.28;63.78
41703;BME280;861;48.808;9.006;2023-02-28T05:09:12;97688.03;;;1.31;63.75
41703;BME280;861;48.808;9.006;2023-02-28T05:11:41;97687.66;;;0.85;65.58
41703;BME280;861;48.808;9.006;2023-02-28T05:14:21;97686.72;;;1.12;64.48
41703;BME280;861;48.808;9.006;2023-02-28T05:16:54;97691.97;;;0.95;65.08
41703;BME280;861;48.808;9.006;2023-02-28T05:19:26;97690.53;;;1.19;64.21
41703;BME280;861;48.808;9.006;2023-02-28T05:21:54;97692.47;;;1.27;64.13
41703;BME280;861;48.808;9.006;2023-02-28T05:24:21;97700.81;;;1.26;64.12
41703;BME280;861;48.808;9.006;2023-02-28T05:26:54;97702.53;;;0.69;65.96
41703;BME280;861;48.808;9.006;2023-02-28T05:29:21;97696.50;;;0.64;66.51
41703;BME280;861;48.808;9.006;2023-02-28T05:31:48;97700.53;;;0.53;66.74
41703;BME280;861;48.808;9.006;2023-02-28T05:34:14;97697.50;;;0.46;67.10
41703;BME280;861;48.808;9.006;2023-02-28T05:36:42;97703.31;;;0.70;66.94
41703;BME280;861;48.808;9.006;2023-02-28T05:39:14;97694.63;;;0.64;67.08
41703;BME280;861;48.808;9.006;2023-02-28T05:41:44;97700.16;;;0.90;65.94
41703;BME280;861;48.808;9.006;2023-02-28T05:44:11;97707.59;;;0.93;65.68
41703;BME280;861;48.808;9.006;2023-02-28T05:46:38;97703.69;;;1.07;65.20
41703;BME280;861;48.808;9.006;2023-02-28T05:49:04;97705.75;;;1.10;65.47
41703;BME280;861;48.808;9.006;2023-02-28T05:51:33;97701.94;;;1.03;65.28
41703;BME280;861;48.808;9.006;2023-02-28T05:54:02;97699.03;;;0.91;66.07
41703;BME280;861;48.808;9.006;2023-02-28T05:56:29;97696.88;;;1.01;65.43
41703;BME280;861;48.808;9.006;2023-02-28T05:58:55;97697.34;;;1.34;64.92
41703;BME280;861;48.808;9.006;2023-02-28T06:01:38;97710.69;;;0.86;65.95
41703;BME280;861;48.808;9.006;2023-02-28T06:04:18;97709.66;;;0.96;66.25
41703;BME280;861;48.808;9.006;2023-02-28T06:06:48;97707.97;;;1.08;66.03
41703;BME280;861;48.808;9.006;2023-02-28T06:09:19;97712.19;;;1.01;65.65
41703;BME280;861;48.808;9.006;2023-02-28T06:12:16;97703.56;;;1.12;66.14
41703;BME280;861;48.808;9.006;2023-02-28T06:15:34;97704.16;;;1.01;65.50
41703;BME280;861;48.808;9.006;2023-02-28T06:18:32;97709.97;;;0.94;65.95
41703;BME280;861;48.808;9.006;2023-02-28T06:22:03;97718.81;;;1.03;65.89
41703;BME280;861;48.808;9.006;2023-02-28T06:24:46;97715.25;;;1.47;63.92
41703;BME280;861;48.808;9.006;2023-02-28T06:27:37;97704.63;;;1.03;65.42
41703;BME280;861;48.808;9.006;2023-02-28T06:30:11;97715.53;;;1.06;65.47
41703;BME280;861;48.808;9.006;2023-02-28T06:33:14;97717.53;;;1.23;65.12
41703;BME280;861;48.808;9.006;2023-02-28T06:36:22;97719.53;;;1.17;65.38
41703;BME280;861;48.808;9.006;2023-02-28T06:39:00;97722.97;;;1.09;65.30
41703;BME280;861;48.808;9.006;2023-02-28T06:42:13;97729.69;;;1.29;65.03
41703;BME280;861;48.808;9.006;2023-02-28T06:45:23;97727.69;;;1.12;65.47
41703;BME280;861;48.808;9.006;2023-02-28T06:48:23;97735.97;;;0.94;65.93
41703;BME280;861;48.808;9.006;2023-02-28T06:51:16;97734.75;;;0.56;67.37
41703;BME280;861;48.808;9.006;2023-02-28T06:53:46;97729.56;;;0.59;67.70
41703;BME280;861;48.808;9.006;2023-02-28T06:56:16;97741.25;;;0.85;66.17
41703;BME280;861;48.808;9.006;2023-02-28T06:58:49;97732.69;;;0.75;66.85
41703;BME280;861;48.808;9.006;2023-02-28T07:01:18;97739.06;;;0.65;66.35
41703;BME280;861;48.808;9.006;2023-02-28T07:03:46;97734.91;;;1.03;65.79
41703;BME280;861;48.808;9.006;2023-02-28T07:06:12;97740.03;;;1.13;65.54
41703;BME280;861;48.808;9.006;2023-02-28T07:08:39;97738.72;;;0.80;66.63
41703;BME280;861;48.808;9.006;2023-02-28T07:11:06;97743.56;;;1.00;65.55
41703;BME280;861;48.808;9.006;2023-02-28T07:13:36;97746.97;;;1.14;65.35
41703;BME280;861;48.808;9.006;2023-02-28T07:16:10;97751.53;;;1.14;64.76
41703;BME280;861;48.808;9.006;2023-02-28T07:18:38;97747.88;;;1.10;65.08
41703;BME280;861;48.808;9.006;2023-02-28T07:21:09;97750.97;;;1.25;64.50
41703;BME280;861;48.808;9.006;2023-02-28T07:23:38;97754.03;;;1.41;63.90
41703;BME280;861;48.808;9.006;2023-02-28T07:26:14;97755.28;;;1.35;64.58
41703;BME280;861;48.808;9.006;2023-02-28T07:28:46;97748.81;;;1.36;63.52
41703;BME280;861;48.808;9.006;2023-02-28T07:31:16;97749.00;;;1.39;63.97
41703;BME280;861;48.808;9.006;2023-02-28T07:33:44;97758.28;;;1.33;64.11
41703;BME280;861;48.808;9.006;2023-02-28T07:36:17;97753.56;;;1.39;64.29
41703;BME280;861;48.808;9.006;2023-02-28T07:38:47;97748.31;;;1.34;64.72
41703;BME280;861;48.808;9.006;2023-02-28T07:41:22;97750.34;;;1.28;64.83
41703;BME280;861;48.808;9.006;2023-02-28T07:43:53;97755.63;;;1.42;64.38
41703;BME280;861;48.808;9.006;2023-02-28T07:46:21;97759.94;;;1.51;64.36
41703;BME280;861;48.808;9.006;2023-02-28T07:48:50;97752.69;;;1.52;64.70
41703;BME280;861;48.808;9.006;2023-02-28T07:51:22;97751.31;;;1.63;63.85
41703;BME280;861;48.808;9.006;2023-02-28T07:53:48;97751.03;;;1.73;64.23
41703;BME280;861;48.808;9.006;2023-02-28T07:56:18;97753.75;;;1.42;63.60
41703;BME280;861;48.808;9.006;2023-02-28T07:58:44;97758.22;;;1.55;63.68
41703;BME280;861;48.808;9.006;2023-02-28T08:01:12;97759.44;;;1.89;62.67
41703;BME280;861;48.808;9.006;2023-02-28T08:03:39;97760.28;;;2.06;61.85
41703;BME280;861;48.808;9.006;2023-02-28T08:06:16;97753.94;;;1.54;64.02
41703;BME280;861;48.808;9.006;2023-02-28T08:08:51;97764.47;;;1.12;65.34
41703;BME280;861;48.808;9.006;2023-02-28T08:11:54;97765.72;;;1.36;63.67
41703;BME280;861;48.808;9.006;2023-02-28T08:14:25;97764.09;;;1.66;63.64
41703;BME280;861;48.808;9.006;2023-02-28T08:17:24;97762.97;;;1.58;63.31
41703;BME280;861;48.808;9.006;2023-02-28T08:20:10;97763.91;;;1.63;63.22
41703;BME280;861;48.808;9.006;2023-02-28T08:23:17;97770.88;;;1.64;62.82
41703;BME280;861;48.808;9.006;2023-02-28T08:25:57;97768.34;;;1.67;63.96
41703;BME280;861;48.808;9.006;2023-02-28T08:28:45;97771.81;;;1.59;63.91
41703;BME280;861;48.808;9.006;2023-02-28T08:31:32;97764.34;;;1.56;64.26
41703;BME280;861;48.808;9.006;2023-02-28T08:34:14;97768.28;;;1.89;62.83
41703;BME280;861;48.808;9.006;2023-02-28T08:36:44;97775.00;;;1.70;63.26
41703;BME280;861;48.808;9.006;2023-02-28T08:39:21;97775.34;;;1.77;62.84
41703;BME280;861;48.808;9.006;2023-02-28T08:42:00;97787.59;;;2.00;62.34
41703;BME280;861;48.808;9.006;2023-02-28T08:44:35;97776.25;;;1.64;63.23
41703;BME280;861;48.808;9.006;2023-02-28T08:47:07;97774.03;;;1.66;63.35
41703;BME280;861;48.808;9.006;2023-02-28T08:49:36;97780.34;;;1.61;63.45
41703;BME280;861;48.808;9.006;2023-02-28T08:52:14;97778.06;;;1.85;62.68
41703;BME280;861;48.808;9.006;2023-02-28T08:54:51;97784.59;;;2.01;62.79
41703;BME280;861;48.808;9.006;2023-02-28T08:57:26;97779.38;;;1.96;62.47
41703;BME280;861;48.808;9.006;2023-02-28T09:00:27;97782.00;;;1.88;62.42
41703;BME280;861;48.808;9.006;2023-02-28T09:03:56;97794.00;;;1.82;63.12
41703;BME280;861;48.808;9.006;2023-02-28T09:06:28;97797.84;;;1.98;62.46
41703;BME280;861;48.808;9.006;2023-02-28T09:08:58;97790.72;;;1.93;62.70
41703;BME280;861;48.808;9.006;2023-02-28T09:11:25;97790.28;;;2.00;62.49
41703;BME280;861;48.808;9.006;2023-02-28T09:13:52;97791.53;;;1.94;62.16
41703;BME280;861;48.808;9.006;2023-02-28T09:16:19;97801.03;;;2.00;61.59
41703;BME280;861;48.808;9.006;2023-02-28T09:18:45;97795.53;;;2.13;61.94
41703;BME280;861;48.808;9.006;2023-02-28T09:21:17;97794.53;;;2.01;61.25
41703;BME280;861;48.808;9.006;2023-02-28T09:23:48;97792.97;;;2.00;62.24
41703;BME280;861;48.808;9.006;2023-02-28T09:26:20;97799.31;;;2.12;61.88
41703;BME280;861;48.808;9.006;2023-02-28T09:28:52;97796.91;;;1.94;62.53
41703;BME280;861;48.808;9.006;2023-02-28T09:31:27;97802.63;;;2.09;61.48
41703;BME280;861;48.808;9.006;2023-02-28T09:33:57;97800.81;;;1.88;62.65
41703;BME280;861;48.808;9.006;2023-02-28T09:36:27;97798.88;;;2.19;61.77
41703;BME280;861;48.808;9.006;2023-02-28T09:38:55;97805.41;;;2.35;61.91
41703;BME280;861;48.808;9.006;2023-02-28T09:41:35;97801.59;;;2.36;61.86
41703;BME280;861;48.808;9.006;2023-02-28T09:44:29;97803.50;;;2.52;61.97
41703;BME280;861;48.808;9.006;2023-02-28T09:47:44;97804.78;;;2.63;60.87
41703;BME280;861;48.808;9.006;2023-02-28T09:53:06;97807.59;;;2.41;61.31
41703;BME280;861;48.808;9.006;2023-02-28T09:55:55;97814.09;;;2.40;61.02
41703;BME280;861;48.808;9.006;2023-02-28T09:58:49;97818.63;;;2.23;61.15
41703;BME280;861;48.808;9.006;2023-02-28T10:01:38;97821.25;;;2.70;61.04
41703;BME280;861;48.808;9.006;2023-02-28T10:05:07;97815.72;;;2.58;60.45
41703;BME280;861;48.808;9.006;2023-02-28T10:10:47;97816.34;;;2.64;59.60
41703;BME280;861;48.808;9.006;2023-02-28T10:14:02;97816.84;;;2.91;58.32
41703;BME280;861;48.808;9.006;2023-02-28T10:20:02;97827.09;;;2.64;58.96
41703;BME280;861;48.808;9.006;2023-02-28T10:23:05;97828.19;;;2.63;58.61
41703;BME280;861;48.808;9.006;2023-02-28T10:25:55;97838.63;;;2.56;58.88
41703;BME280;861;48.808;9.006;2023-02-28T10:28:29;97834.00;;;2.48;59.48
41703;BME280;861;48.808;9.006;2023-02-28T10:31:19;97838.22;;;2.32;59.09
41703;BME280;861;48.808;9.006;2023-02-28T10:33:47;97841.97;;;2.78;58.17
41703;BME280;861;48.808;9.006;2023-02-28T10:36:19;97832.34;;;2.94;58.09
41703;BME280;861;48.808;9.006;2023-02-28T10:38:48;97829.78;;;2.98;58.21
41703;BME280;861;48.808;9.006;2023-02-28T10:41:43;97828.38;;;3.00;57.21
41703;BME280;861;48.808;9.006;2023-02-28T10:44:23;97831.38;;;3.07;58.12
41703;BME280;861;48.808;9.006;2023-02-28T10:46:51;97826.97;;;2.94;58.00
41703;BME280;861;48.808;9.006;2023-02-28T10:49:31;97826.00;;;3.25;57.18
41703;BME280;861;48.808;9.006;2023-02-28T10:52:01;97826.41;;;3.52;56.94
41703;BME280;861;48.808;9.006;2023-02-28T10:54:35;97819.25;;;3.73;56.21
41703;BME280;861;48.808;9.006;2023-02-28T10:57:24;97830.34;;;3.63;56.58
41703;BME280;861;48.808;9.006;2023-02-28T11:00:34;97825.13;;;4.04;55.26
41703;BME280;861;48.808;9.006;2023-02-28T11:03:34;97830.03;;;3.65;55.07
41703;BME280;861;48.808;9.006;2023-02-28T11:08:56;97830.19;;;3.68;56.61
41703;BME280;861;48.808;9.006;2023-02-28T11:11:30;97818.41;;;4.19;56.75
41703;BME280;861;48.808;9.006;2023-02-28T11:14:27;97819.16;;;4.78;55.95
41703;BME280;861;48.808;9.006;2023-02-28T11:17:15;97809.03;;;4.95;53.95
41703;BME280;861;48.808;9.006;2023-02-28T11:20:02;97822.97;;;4.56;53.84
41703;BME280;861;48.808;9.006;2023-02-28T11:22:43;97809.47;;;4.56;53.69
41703;BME280;861;48.808;9.006;2023-02-28T11:25:33;97805.03;;;4.81;54.18
41703;BME280;861;48.808;9.006;2023-02-28T11:28:28;97805.06;;;5.46;52.91
41703;BME280;861;48.808;9.006;2023-02-28T11:33:51;97808.50;;;5.34;52.26
41703;BME280;861;48.808;9.006;2023-02-28T11:36:25;97812.19;;;5.50;52.19
41703;BME280;861;48.808;9.006;2023-02-28T11:39:09;97813.81;;;5.31;52.02
41703;BME280;861;48.808;9.006;2023-02-28T11:48:44;97799.47;;;5.95;51.41
41703;BME280;861;48.808;9.006;2023-02-28T11:51:53;97804.38;;;5.81;51.62
41703;BME280;861;48.808;9.006;2023-02-28T11:58:32;97791.75;;;6.70;50.84
41703;BME280;861;48.808;9.006;2023-02-28T12:01:41;97791.81;;;7.25;48.08
41703;BME280;861;48.808;9.006;2023-02-28T12:05:05;97783.47;;;7.02;49.06
41703;BME280;861;48.808;9.006;2023-02-28T12:12:16;97789.31;;;7.75;48.80
41703;BME280;861;48.808;9.006;2023-02-28T12:18:03;97772.53;;;8.01;47.39
41703;BME280;861;48.808;9.006;2023-02-28T12:21:31;97778.69;;;7.39;48.21
41703;BME280;861;48.808;9.006;2023-02-28T12:27:22;97771.22;;;7.95;48.50
41703;BME280;861;48.808;9.006;2023-02-28T12:30:30;97765.38;;;8.24;47.42
41703;BME280;861;48.808;9.006;2023-02-28T12:33:19;97771.47;;;8.36;46.95
41703;BME280;861;48.808;9.006;2023-02-28T12:35:57;97771.28;;;8.45;46.71
41703;BME280;861;48.808;9.006;2023-02-28T12:38:45;97764.72;;;8.15;45.96
41703;BME280;861;48.808;9.006;2023-02-28T12:42:13;97748.81;;;8.13;45.87
41703;BME280;861;48.808;9.006;2023-02-28T12:45:00;97753.88;;;8.15;46.71
41703;BME280;861;48.808;9.006;2023-02-28T12:47:30;97746.84;;;8.45;46.17
41703;BME280;861;48.808;9.006;2023-02-28T12:50:06;97747.53;;;8.57;45.09
41703;BME280;861;48.808;9.006;2023-02-28T12:53:09;97733.69;;;8.62;45.88
41703;BME280;861;48.808;9.006;2023-02-28T12:56:29;97744.00;;;9.29;44.17
41703;BME280;861;48.808;9.006;2023-02-28T13:09:12;97738.25;;;9.34;44.53
41703;BME280;861;48.808;9.006;2023-02-28T13:11:56;97734.34;;;9.77;43.66
41703;BME280;861;48.808;9.006;2023-02-28T13:19:46;97733.78;;;10.10;43.87
41703;BME280;861;48.808;9.006;2023-02-28T13:25:02;97741.34;;;10.46;42.78
41703;BME280;861;48.808;9.006;2023-02-28T13:27:40;97738.44;;;10.35;42.68
41703;BME280;861;48.808;9.006;2023-02-28T13:36:32;97731.84;;;10.36;41.78
41703;BME280;861;48.808;9.006;2023-02-28T13:39:50;97738.13;;;10.66;42.80
41703;BME280;861;48.808;9.006;2023-02-28T13:42:39;97736.91;;;10.94;41.54
41703;BME280;861;48.808;9.006;2023-02-28T13:45:27;97740.53;;;11.01;41.65
41703;BME280;861;48.808;9.006;2023-02-28T13:48:03;97733.63;;;11.11;40.63
41703;BME280;861;48.808;9.006;2023-02-28T13:50:43;97738.47;;;11.24;40.78
41703;BME280;861;48.808;9.006;2023-02-28T13:59:29;97742.56;;;11.08;40.00
41703;BME280;861;48.808;9.006;2023-02-28T14:05:44;97742.63;;;11.15;40.99
41703;BME280;861;48.808;9.006;2023-02-28T14:08:22;97738.63;;;11.38;41.44
41703;BME280;861;48.808;9.006;2023-02-28T14:11:05;97732.47;;;11.45;41.26
41703;BME280;861;48.808;9.006;2023-02-28T14:13:49;97733.72;;;11.54;41.20
41703;BME280;861;48.808;9.006;2023-02-28T14:16:23;97741.38;;;11.75;40.85
41703;BME280;861;48.808;9.006;2023-02-28T14:19:11;97731.13;;;11.32;41.22
41703;BME280;861;48.808;9.006;2023-02-28T14:22:52;97728.53;;;11.79;39.28
41703;BME280;861;48.808;9.006;2023-02-28T14:25:47;97723.31;;;11.63;39.93
41703;BME280;861;48.808;9.006;2023-02-28T14:33:13;97733.00;;;10.61;41.17
41703;BME280;861;48.808;9.006;2023-02-28T14:36:24;97719.31;;;10.84;40.27
41703;BME280;861;48.808;9.006;2023-02-28T14:39:07;97722.69;;;11.07;41.10
41703;BME280;861;48.808;9.006;2023-02-28T14:41:46;97730.59;;;11.19;40.23
41703;BME280;861;48.808;9.006;2023-02-28T14:44:27;97735.28;;;11.19;40.00
41703;BME280;861;48.808;9.006;2023-02-28T14:46:59;97737.88;;;10.78;41.14
41703;BME280;861;48.808;9.006;2023-02-28T14:49:43;97736.00;;;11.12;40.68
41703;BME280;861;48.808;9.006;2023-02-28T14:52:32;97729.22;;;10.99;40.55
41703;BME280;861;48.808;9.006;2023-02-28T14:55:14;97732.25;;;10.94;39.83
41703;BME280;861;48.808;9.006;2023-02-28T14:58:00;97741.09;;;10.84;40.79
41703;BME280;861;48.808;9.006;2023-02-28T15:00:40;97738.63;;;10.75;40.29
41703;BME280;861;48.808;9.006;2023-02-28T15:03:33;97734.66;;;10.69;41.03
41703;BME280;861;48.808;9.006;2023-02-28T15:06:17;97740.19;;;10.76;41.75
41703;BME280;861;48.808;9.006;2023-02-28T15:08:45;97739.06;;;10.81;41.38
41703;BME280;861;48.808;9.006;2023-02-28T15:11:19;97738.50;;;10.95;41.42
41703;BME280;861;48.808;9.006;2023-02-28T15:13:57;97740.03;;;11.25;40.03
41703;BME280;861;48.808;9.006;2023-02-28T15:16:37;97740.22;;;11.06;39.98
41703;BME280;861;48.808;9.006;2023-02-28T15:19:32;97738.81;;;10.90;41.09
41703;BME280;861;48.808;9.006;2023-02-28T15:22:21;97745.81;;;10.91;41.38
41703;BME280;861;48.808;9.006;2023-02-28T15:24:58;97733.19;;;10.49;41.83
41703;BME280;861;48.808;9.006;2023-02-28T15:27:32;97740.38;;;10.61;40.67
41703;BME280;861;48.808;9.006;2023-02-28T15:30:23;97732.16;;;10.57;41.14
41703;BME280;861;48.808;9.006;2023-02-28T15:35:45;97737.69;;;10.38;41.22
41703;BME280;861;48.808;9.006;2023-02-28T15:38:21;97742.25;;;10.31;42.00
41703;BME280;861;48.808;9.006;2023-02-28T15:40:58;97738.59;;;9.97;42.39
41703;BME280;861;48.808;9.006;2023-02-28T15:43:29;97747.59;;;10.01;42.83
41703;BME280;861;48.808;9.006;2023-02-28T15:46:09;97736.47;;;9.87;42.22
41703;BME280;861;48.808;9.006;2023-02-28T15:48:55;97735.31;;;9.88;43.15
41703;BME280;861;48.808;9.006;2023-02-28T15:51:36;97747.47;;;10.17;42.95
41703;BME280;861;48.808;9.006;2023-02-28T15:54:19;97750.06;;;9.65;43.24
41703;BME280;861;48.808;9.006;2023-02-28T15:56:57;97744.88;;;10.01;42.89
41703;BME280;861;48.808;9.006;2023-02-28T15:59:32;97740.59;;;9.78;43.15
41703;BME280;861;48.808;9.006;2023-02-28T16:05:24;97733.41;;;9.89;42.77
41703;BME280;861;48.808;9.006;2023-02-28T16:08:17;97743.75;;;9.80;43.79
41703;BME280;861;48.808;9.006;2023-02-28T16:10:44;97742.53;;;9.77;42.98
41703;BME280;861;48.808;9.006;2023-02-28T16:13:13;97739.31;;;9.49;43.61
41703;BME280;861;48.808;9.006;2023-02-28T16:15:44;97741.00;;;9.57;43.60
41703;BME280;861;48.808;9.006;2023-02-28T16:18:13;97744.50;;;9.16;44.57
41703;BME280;861;48.808;9.006;2023-02-28T16:20:40;97751.84;;;9.34;44.22
41703;BME280;861;48.808;9.006;2023-02-28T16:23:07;97748.47;;;9.22;44.02
41703;BME280;861;48.808;9.006;2023-02-28T16:25:40;97752.00;;;8.84;45.03
41703;BME280;861;48.808;9.006;2023-02-28T16:28:35;97751.59;;;8.82;44.93